createdAt,value
2022-11-24T00:01:08.396Z,98008.53
2022-11-24T00:03:35.420Z,98001.34
2022-11-24T00:06:11.076Z,98003.19
2022-11-24T00:08:39.677Z,98011.06
2022-11-24T00:11:09.547Z,98011.91
2022-11-24T00:13:39.083Z,97998.19
2022-11-24T00:16:24.050Z,98022.41
2022-11-24T00:18:52.857Z,98001.56
2022-11-24T00:21:20.959Z,98022.41
2022-11-24T00:23:49.001Z,97987.97
2022-11-24T00:26:18.509Z,98009.47
2022-11-24T00:28:46.886Z,98016.09
2022-11-24T00:31:23.288Z,98013.28
2022-11-24T00:33:51.910Z,98032.78
2022-11-24T00:36:20.557Z,98029.41
2022-11-24T00:38:47.781Z,98044.06
2022-11-24T00:41:14.624Z,98021.38
2022-11-24T00:43:41.282Z,98061.19
2022-11-24T00:46:08.286Z,98061.19
2022-11-24T00:48:35.293Z,98054.97
2022-11-24T00:51:04.144Z,98080.47
2022-11-24T00:53:30.794Z,98084.84
2022-11-24T00:55:57.937Z,98094.25
2022-11-24T00:58:25.663Z,98089.25
2022-11-24T01:00:52.919Z,98091.97
2022-11-24T01:03:20.620Z,98111.34
2022-11-24T01:05:47.529Z,98103.09
2022-11-24T01:09:00.976Z,98099.28
2022-11-24T01:14:38.373Z,98095.88
2022-11-24T01:17:15.187Z,98069.63
2022-11-24T01:19:42.132Z,98095.94
2022-11-24T01:22:13.956Z,98103.38
2022-11-24T01:25:02.937Z,98125.47
2022-11-24T01:28:01.629Z,98128.50
2022-11-24T01:31:06.102Z,98129.84
2022-11-24T01:34:03.053Z,98145.16
2022-11-24T01:36:54.648Z,98151.72
2022-11-24T01:39:53.971Z,98155.69
2022-11-24T01:42:54.112Z,98156.72
2022-11-24T01:45:41.288Z,98141.28
2022-11-24T01:51:12.654Z,98154.59
2022-11-24T01:53:44.197Z,98136.94
2022-11-24T01:56:12.308Z,98141.34
2022-11-24T01:58:41.947Z,98174.00
2022-11-24T02:01:09.312Z,98178.00
2022-11-24T02:03:39.860Z,98153.28
2022-11-24T02:06:13.548Z,98170.34
2022-11-24T02:08:57.400Z,98167.03
2022-11-24T02:11:28.663Z,98163.38
2022-11-24T02:13:57.351Z,98171.19
2022-11-24T02:16:24.086Z,98180.84
2022-11-24T02:18:51.302Z,98167.75
2022-11-24T02:21:18.508Z,98182.09
2022-11-24T02:24:02.065Z,98166.34
2022-11-24T02:26:28.673Z,98206.28
2022-11-24T02:28:55.712Z,98178.69
2022-11-24T02:31:22.766Z,98199.06
2022-11-24T02:33:50.532Z,98205.56
2022-11-24T02:36:17.368Z,98197.41
2022-11-24T02:38:44.530Z,98158.78
2022-11-24T02:41:17.140Z,98195.56
2022-11-24T02:43:48.946Z,98212.25
2022-11-24T02:46:15.651Z,98186.94
2022-11-24T02:48:42.309Z,98213.25
2022-11-24T02:51:09.455Z,98204.13
2022-11-24T02:53:36.107Z,98204.09
2022-11-24T02:56:02.808Z,98225.44
2022-11-24T02:58:29.689Z,98213.03
2022-11-24T03:00:58.180Z,98249.31
2022-11-24T03:03:25.054Z,98217.19
2022-11-24T03:05:51.691Z,98250.28
2022-11-24T03:08:18.421Z,98247.84
2022-11-24T03:10:45.092Z,98256.28
2022-11-24T03:13:11.915Z,98248.53
2022-11-24T03:15:38.630Z,98251.34
2022-11-24T03:18:05.332Z,98227.28
2022-11-24T03:20:32.152Z,98241.38
2022-11-24T03:22:58.828Z,98275.00
2022-11-24T03:25:25.458Z,98275.97
2022-11-24T03:27:52.148Z,98279.50
2022-11-24T03:30:18.949Z,98279.78
2022-11-24T03:32:45.784Z,98298.78
2022-11-24T03:35:12.404Z,98297.59
2022-11-24T03:37:39.082Z,98281.34
2022-11-24T03:40:06.286Z,98315.94
2022-11-24T03:42:32.955Z,98324.44
2022-11-24T03:45:04.245Z,98329.16
2022-11-24T03:47:43.549Z,98325.91
2022-11-24T03:50:10.159Z,98318.78
2022-11-24T03:52:36.877Z,98333.19
2022-11-24T03:55:03.685Z,98343.09
2022-11-24T03:57:30.383Z,98358.69
2022-11-24T03:59:57.091Z,98347.38
2022-11-24T04:02:23.978Z,98329.72
2022-11-24T04:04:52.184Z,98353.75
2022-11-24T04:07:19.023Z,98367.09
2022-11-24T04:09:45.786Z,98369.00
2022-11-24T04:12:30.971Z,98374.53
2022-11-24T04:14:57.620Z,98343.09
2022-11-24T04:17:24.324Z,98344.56
2022-11-24T04:19:50.968Z,98347.53
2022-11-24T04:22:18.264Z,98338.25
2022-11-24T04:24:44.903Z,98369.75
2022-11-24T04:27:11.564Z,98371.06
2022-11-24T04:29:38.420Z,98352.78
2022-11-24T04:32:05.362Z,98355.22
2022-11-24T04:34:32.356Z,98353.47
2022-11-24T04:36:59.228Z,98354.09
2022-11-24T04:39:28.494Z,98356.03
2022-11-24T04:41:55.598Z,98360.41
2022-11-24T04:44:22.575Z,98372.22
2022-11-24T04:46:49.315Z,98380.81
2022-11-24T04:49:16.291Z,98375.94
2022-11-24T04:51:42.995Z,98342.22
2022-11-24T04:54:12.132Z,98378.34
2022-11-24T04:56:39.508Z,98409.81
2022-11-24T04:59:08.372Z,98411.97
2022-11-24T05:01:35.597Z,98399.03
2022-11-24T05:04:02.299Z,98402.88
2022-11-24T05:06:29.026Z,98424.84
2022-11-24T05:08:55.671Z,98449.59
2022-11-24T05:11:22.300Z,98453.59
2022-11-24T05:13:48.936Z,98461.50
2022-11-24T05:16:15.945Z,98477.25
2022-11-24T05:18:42.697Z,98412.34
2022-11-24T05:21:09.429Z,98467.31
2022-11-24T05:23:36.238Z,98471.94
2022-11-24T05:26:04.111Z,98468.88
2022-11-24T05:28:31.332Z,98476.22
2022-11-24T05:31:02.331Z,98483.50
2022-11-24T05:33:30.286Z,98468.34
2022-11-24T05:36:01.542Z,98469.53
2022-11-24T05:38:29.708Z,98467.31
2022-11-24T05:41:04.610Z,98496.25
2022-11-24T05:43:31.517Z,98511.22
2022-11-24T05:46:01.824Z,98512.72
2022-11-24T05:48:28.554Z,98483.31
2022-11-24T05:50:56.836Z,98512.03
2022-11-24T05:53:24.096Z,98516.22
2022-11-24T05:55:50.772Z,98490.53
2022-11-24T05:58:17.458Z,98484.59
2022-11-24T06:00:44.188Z,98500.34
2022-11-24T06:03:12.249Z,98504.22
2022-11-24T06:05:39.348Z,98511.66
2022-11-24T06:08:06.082Z,98513.28
2022-11-24T06:10:32.827Z,98507.69
2022-11-24T06:12:59.507Z,98503.47
2022-11-24T06:15:26.137Z,98522.63
2022-11-24T06:17:55.461Z,98520.59
2022-11-24T06:20:27.033Z,98522.47
2022-11-24T06:23:00.213Z,98541.34
2022-11-24T06:25:27.940Z,98543.41
2022-11-24T06:27:55.032Z,98556.25
2022-11-24T06:30:21.681Z,98564.13
2022-11-24T06:32:49.947Z,98542.75
2022-11-24T06:35:17.282Z,98593.44
2022-11-24T06:37:44.085Z,98598.31
2022-11-24T06:40:14.057Z,98578.09
2022-11-24T06:42:40.674Z,98587.41
2022-11-24T06:45:09.602Z,98563.22
2022-11-24T06:47:36.824Z,98601.16
2022-11-24T06:50:03.882Z,98598.19
2022-11-24T06:52:30.860Z,98595.13
2022-11-24T06:54:57.480Z,98601.75
2022-11-24T06:57:24.338Z,98604.16
2022-11-24T06:59:51.117Z,98635.06
2022-11-24T07:02:17.732Z,98598.75
2022-11-24T07:04:44.456Z,98631.34
2022-11-24T07:07:11.124Z,98595.03
2022-11-24T07:09:37.774Z,98614.22
2022-11-24T07:12:06.020Z,98605.84
2022-11-24T07:14:33.288Z,98624.00
2022-11-24T07:17:02.624Z,98592.97
2022-11-24T07:19:29.518Z,98609.09
2022-11-24T07:21:56.358Z,98622.16
2022-11-24T07:24:23.086Z,98627.81
2022-11-24T07:26:49.694Z,98604.81
2022-11-24T07:29:16.457Z,98654.31
2022-11-24T07:31:43.401Z,98609.63
2022-11-24T07:34:10.309Z,98618.56
2022-11-24T07:36:36.998Z,98615.00
2022-11-24T07:39:06.619Z,98612.53
2022-11-24T07:41:33.289Z,98610.34
2022-11-24T07:43:59.939Z,98600.81
2022-11-24T07:46:26.749Z,98632.63
2022-11-24T07:48:53.840Z,98610.69
2022-11-24T07:51:20.521Z,98638.78
2022-11-24T07:53:47.269Z,98646.78
2022-11-24T07:56:14.062Z,98643.16
2022-11-24T07:58:40.882Z,98695.88
2022-11-24T08:01:18.062Z,98712.00
2022-11-24T08:03:45.931Z,98703.03
2022-11-24T08:06:38.165Z,98680.31
2022-11-24T08:09:00.327Z,98672.00
2022-11-24T08:11:27.832Z,98723.19
2022-11-24T08:13:54.661Z,98712.97
2022-11-24T08:16:21.480Z,98723.13
2022-11-24T08:18:53.683Z,98718.91
2022-11-24T08:21:20.824Z,98719.78
2022-11-24T08:23:47.463Z,98721.44
2022-11-24T08:26:17.894Z,98745.69
2022-11-24T08:28:46.166Z,98701.31
2022-11-24T08:31:20.733Z,98758.13
2022-11-24T08:33:47.730Z,98768.97
2022-11-24T08:36:17.527Z,98766.34
2022-11-24T08:38:45.046Z,98752.44
2022-11-24T08:41:14.317Z,98766.63
2022-11-24T08:43:41.947Z,98767.38
2022-11-24T08:46:13.978Z,98783.22
2022-11-24T08:48:41.698Z,98772.75
2022-11-24T08:51:11.884Z,98774.59
2022-11-24T08:53:39.641Z,98772.16
2022-11-24T08:56:07.525Z,98789.19
2022-11-24T08:58:35.237Z,98765.09
2022-11-24T09:01:11.301Z,98780.97
2022-11-24T09:03:38.437Z,98761.75
2022-11-24T09:06:06.291Z,98801.13
2022-11-24T09:08:33.685Z,98806.81
2022-11-24T09:11:05.036Z,98805.91
2022-11-24T09:13:32.212Z,98733.03
2022-11-24T09:16:06.007Z,98807.16
2022-11-24T09:18:33.002Z,98805.13
2022-11-24T09:21:26.002Z,98804.59
2022-11-24T09:23:54.250Z,98799.53
2022-11-24T09:26:26.973Z,98804.22
2022-11-24T09:28:55.426Z,98766.53
2022-11-24T09:31:31.208Z,98771.50
2022-11-24T09:33:58.062Z,98807.59
2022-11-24T09:36:25.139Z,98816.91
2022-11-24T09:38:52.226Z,98788.75
2022-11-24T09:41:21.732Z,98828.66
2022-11-24T09:44:06.360Z,98799.75
2022-11-24T09:46:50.219Z,98821.16
2022-11-24T09:49:24.464Z,98810.28
2022-11-24T09:51:55.151Z,98770.09
2022-11-24T09:54:28.873Z,98817.81
2022-11-24T09:56:59.860Z,98794.34
2022-11-24T09:59:27.617Z,98819.44
2022-11-24T10:01:55.923Z,98818.94
2022-11-24T10:04:28.449Z,98782.75
2022-11-24T10:06:57.993Z,98805.97
2022-11-24T10:09:36.955Z,98807.09
2022-11-24T10:12:28.380Z,98814.38
2022-11-24T10:15:07.766Z,98804.81
2022-11-24T10:18:16.383Z,98803.84
2022-11-24T10:20:57.230Z,98812.63
2022-11-24T10:23:51.573Z,98813.06
2022-11-24T10:26:39.753Z,98788.25
2022-11-24T10:29:12.507Z,98817.75
2022-11-24T10:31:43.041Z,98805.25
2022-11-24T10:34:16.135Z,98816.34
2022-11-24T10:37:00.997Z,98813.16
2022-11-24T10:40:17.211Z,98794.47
2022-11-24T10:42:53.515Z,98766.53
2022-11-24T10:45:22.418Z,98812.28
2022-11-24T10:47:49.815Z,98770.31
2022-11-24T10:50:24.690Z,98812.25
2022-11-24T10:53:00.054Z,98806.75
2022-11-24T10:55:26.851Z,98768.69
2022-11-24T10:57:53.538Z,98774.66
2022-11-24T11:00:20.129Z,98821.03
2022-11-24T11:02:49.427Z,98776.53
2022-11-24T11:05:42.188Z,98823.63
2022-11-24T11:08:22.145Z,98816.25
2022-11-24T11:10:51.741Z,98810.50
2022-11-24T11:13:30.197Z,98814.31
2022-11-24T11:15:58.685Z,98773.03
2022-11-24T11:18:32.822Z,98824.72
2022-11-24T11:21:04.891Z,98825.88
2022-11-24T11:23:35.376Z,98820.97
2022-11-24T11:26:32.440Z,98798.19
2022-11-24T11:35:13.351Z,98809.56
2022-11-24T11:37:40.583Z,98789.44
2022-11-24T11:40:16.173Z,98795.94
2022-11-24T11:43:03.213Z,98742.81
2022-11-24T11:45:40.676Z,98778.97
2022-11-24T11:48:25.505Z,98775.81
2022-11-24T11:51:22.934Z,98783.22
2022-11-24T11:54:09.954Z,98778.97
2022-11-24T11:56:44.477Z,98753.66
2022-11-24T11:59:20.566Z,98789.16
2022-11-24T12:01:56.032Z,98781.50
2022-11-24T12:04:48.595Z,98759.25
2022-11-24T12:07:39.662Z,98785.97
2022-11-24T12:10:36.296Z,98788.72
2022-11-24T12:13:19.809Z,98763.00
2022-11-24T12:15:49.618Z,98774.84
2022-11-24T12:18:57.529Z,98732.75
2022-11-24T12:21:49.571Z,98754.56
2022-11-24T12:24:25.895Z,98757.69
2022-11-24T12:27:09.212Z,98752.47
2022-11-24T12:30:02.741Z,98749.44
2022-11-24T12:32:38.953Z,98741.06
2022-11-24T12:35:15.526Z,98733.72
2022-11-24T12:38:08.830Z,98733.59
2022-11-24T12:40:47.120Z,98743.78
2022-11-24T12:43:30.137Z,98733.63
2022-11-24T12:46:19.511Z,98744.59
2022-11-24T12:49:01.290Z,98716.53
2022-11-24T12:51:33.464Z,98708.09
2022-11-24T12:54:03.393Z,98702.31
2022-11-24T12:56:40.779Z,98727.47
2022-11-24T12:59:25.678Z,98732.50
2022-11-24T13:01:52.634Z,98731.09
2022-11-24T13:04:43.282Z,98743.22
2022-11-24T13:07:11.562Z,98734.13
2022-11-24T13:09:38.466Z,98740.72
2022-11-24T13:12:13.962Z,98710.50
2022-11-24T13:14:49.974Z,98714.16
2022-11-24T13:17:50.265Z,98701.69
2022-11-24T13:20:20.949Z,98692.59
2022-11-24T13:22:55.238Z,98692.09
2022-11-24T13:25:23.768Z,98689.75
2022-11-24T13:27:57.639Z,98665.38
2022-11-24T13:30:54.291Z,98663.47
2022-11-24T13:33:30.235Z,98652.19
2022-11-24T13:36:02.983Z,98648.91
2022-11-24T13:38:44.934Z,98648.00
2022-11-24T13:41:31.511Z,98636.41
2022-11-24T13:44:16.409Z,98645.50
2022-11-24T13:47:00.209Z,98639.38
2022-11-24T13:49:42.807Z,98605.88
2022-11-24T13:52:42.728Z,98630.53
2022-11-24T13:55:12.225Z,98629.78
2022-11-24T13:57:40.769Z,98599.44
2022-11-24T14:00:24.601Z,98628.09
2022-11-24T14:03:17.231Z,98626.69
2022-11-24T14:05:52.338Z,98572.09
2022-11-24T14:08:25.292Z,98615.78
2022-11-24T14:10:53.705Z,98611.03
2022-11-24T14:13:26.156Z,98618.47
2022-11-24T14:16:06.768Z,98637.38
2022-11-24T14:18:34.809Z,98596.75
2022-11-24T14:21:21.003Z,98636.72
2022-11-24T14:23:55.930Z,98625.31
2022-11-24T14:26:35.484Z,98587.22
2022-11-24T14:29:21.628Z,98625.94
2022-11-24T14:32:04.946Z,98630.31
2022-11-24T14:34:35.561Z,98613.84
2022-11-24T14:37:02.581Z,98569.66
2022-11-24T14:39:30.428Z,98609.06
2022-11-24T14:42:18.319Z,98623.50
2022-11-24T14:44:47.966Z,98626.88
2022-11-24T14:47:37.856Z,98615.84
2022-11-24T14:50:10.847Z,98621.59
2022-11-24T14:52:45.418Z,98613.53
2022-11-24T14:55:33.001Z,98594.88
2022-11-24T14:58:00.313Z,98591.72
2022-11-24T15:00:33.199Z,98589.53
2022-11-24T15:03:03.067Z,98575.72
2022-11-24T15:05:55.867Z,98607.00
2022-11-24T15:08:27.707Z,98558.16
2022-11-24T15:11:02.387Z,98559.91
2022-11-24T15:13:33.141Z,98583.22
2022-11-24T15:16:03.983Z,98549.06
2022-11-24T15:18:39.582Z,98582.94
2022-11-24T15:21:06.855Z,98554.53
2022-11-24T15:23:35.403Z,98549.41
2022-11-24T15:26:02.017Z,98583.47
2022-11-24T15:28:30.277Z,98521.75
2022-11-24T15:31:03.580Z,98569.91
2022-11-24T15:33:31.099Z,98607.56
2022-11-24T15:35:59.011Z,98567.91
2022-11-24T15:38:25.721Z,98584.34
2022-11-24T15:40:55.176Z,98561.63
2022-11-24T15:43:27.834Z,98532.22
2022-11-24T15:45:54.503Z,98552.22
2022-11-24T15:48:21.167Z,98519.47
2022-11-24T15:50:48.625Z,98559.34
2022-11-24T15:53:30.577Z,98514.91
2022-11-24T15:55:57.834Z,98514.19
2022-11-24T15:58:24.976Z,98525.47
2022-11-24T16:00:53.616Z,98529.97
2022-11-24T16:06:24.148Z,98554.19
2022-11-24T16:08:52.718Z,98514.56
2022-11-24T16:11:19.599Z,98540.47
2022-11-24T16:13:51.874Z,98528.81
2022-11-24T16:16:20.188Z,98488.38
2022-11-24T16:18:46.920Z,98479.59
2022-11-24T16:21:13.627Z,98497.38
2022-11-24T16:23:40.305Z,98479.16
2022-11-24T16:26:07.266Z,98504.88
2022-11-24T16:28:34.102Z,98521.06
2022-11-24T16:31:00.771Z,98485.81
2022-11-24T16:33:29.784Z,98484.34
2022-11-24T16:35:56.394Z,98458.44
2022-11-24T16:38:23.309Z,98488.75
2022-11-24T16:40:54.187Z,98487.47
2022-11-24T16:43:21.121Z,98458.88
2022-11-24T16:46:01.538Z,98482.47
2022-11-24T16:48:28.243Z,98480.97
2022-11-24T16:50:54.954Z,98490.91
2022-11-24T16:53:21.682Z,98449.75
2022-11-24T16:55:57.408Z,98495.00
2022-11-24T16:58:24.182Z,98423.88
2022-11-24T17:00:50.855Z,98435.03
2022-11-24T17:03:17.525Z,98462.28
2022-11-24T17:05:44.678Z,98460.22
2022-11-24T17:08:11.311Z,98452.03
2022-11-24T17:10:39.573Z,98451.88
2022-11-24T17:13:06.259Z,98464.63
2022-11-24T17:15:36.611Z,98427.88
2022-11-24T17:18:24.127Z,98405.38
2022-11-24T17:20:51.737Z,98439.84
2022-11-24T17:23:19.731Z,98430.09
2022-11-24T17:25:46.584Z,98441.09
2022-11-24T17:28:13.256Z,98420.38
2022-11-24T17:30:39.970Z,98400.28
2022-11-24T17:33:06.738Z,98420.28
2022-11-24T17:35:37.127Z,98440.97
2022-11-24T17:38:04.404Z,98426.63
2022-11-24T17:40:31.117Z,98446.31
2022-11-24T17:42:59.683Z,98442.41
2022-11-24T17:45:28.242Z,98425.00
2022-11-24T17:47:55.368Z,98420.41
2022-11-24T17:50:25.679Z,98412.72
2022-11-24T17:52:53.783Z,98424.31
2022-11-24T17:55:20.545Z,98395.09
2022-11-24T17:57:47.203Z,98421.88
2022-11-24T18:00:14.425Z,98405.09
2022-11-24T18:02:41.070Z,98433.28
2022-11-24T18:05:08.208Z,98432.06
2022-11-24T18:07:37.708Z,98432.44
2022-11-24T18:10:04.894Z,98406.41
2022-11-24T18:12:32.493Z,98407.94
2022-11-24T18:14:59.209Z,98441.00
2022-11-24T18:17:25.908Z,98471.31
2022-11-24T18:19:52.612Z,98436.06
2022-11-24T18:22:31.415Z,98449.06
2022-11-24T18:25:07.136Z,98414.84
2022-11-24T18:27:33.783Z,98419.41
2022-11-24T18:30:00.502Z,98481.84
2022-11-24T18:32:27.273Z,98444.97
2022-11-24T18:34:54.214Z,98449.38
2022-11-24T18:37:20.866Z,98464.34
2022-11-24T18:39:47.573Z,98462.06
2022-11-24T18:42:14.259Z,98474.75
2022-11-24T18:44:42.483Z,98478.22
2022-11-24T18:47:09.198Z,98471.22
2022-11-24T18:49:35.822Z,98512.44
2022-11-24T18:52:02.501Z,98476.44
2022-11-24T18:54:29.383Z,98468.06
2022-11-24T18:57:01.738Z,98488.94
2022-11-24T18:59:29.864Z,98477.00
2022-11-24T19:01:58.011Z,98513.78
2022-11-24T19:04:26.293Z,98485.94
2022-11-24T19:06:52.983Z,98484.59
2022-11-24T19:09:22.558Z,98475.72
2022-11-24T19:11:49.278Z,98485.63
2022-11-24T19:14:18.406Z,98503.75
2022-11-24T19:16:48.019Z,98486.31
2022-11-24T19:19:17.059Z,98467.63
2022-11-24T19:21:44.113Z,98461.44
2022-11-24T19:24:11.746Z,98482.72
2022-11-24T19:26:49.799Z,98512.13
2022-11-24T19:29:16.463Z,98496.56
2022-11-24T19:31:44.022Z,98444.25
2022-11-24T19:34:10.716Z,98482.50
2022-11-24T19:36:37.493Z,98441.09
2022-11-24T19:39:05.246Z,98440.72
2022-11-24T19:41:33.660Z,98477.25
2022-11-24T19:44:00.682Z,98432.47
2022-11-24T19:46:29.709Z,98481.38
2022-11-24T19:48:59.770Z,98482.16
2022-11-24T19:51:30.803Z,98460.50
2022-11-24T19:53:58.230Z,98471.97
2022-11-24T19:56:27.133Z,98453.09
2022-11-24T19:58:55.215Z,98465.66
2022-11-24T20:01:24.746Z,98474.72
2022-11-24T20:04:02.901Z,98481.72
2022-11-24T20:06:32.616Z,98488.28
2022-11-24T20:09:00.746Z,98497.78
2022-11-24T20:11:28.380Z,98493.19
2022-11-24T20:13:55.442Z,98491.97
2022-11-24T20:16:26.703Z,98496.63
2022-11-24T20:18:55.547Z,98493.84
2022-11-24T20:21:25.598Z,98502.81
2022-11-24T20:23:57.788Z,98493.41
2022-11-24T20:26:26.196Z,98491.19
2022-11-24T20:28:55.389Z,98495.13
2022-11-24T20:31:31.527Z,98488.63
2022-11-24T20:34:00.040Z,98486.13
2022-11-24T20:36:29.309Z,98498.78
2022-11-24T20:38:58.490Z,98484.78
2022-11-24T20:41:27.761Z,98499.50
2022-11-24T20:43:56.465Z,98499.22
2022-11-24T20:46:25.604Z,98498.28
2022-11-24T20:48:53.713Z,98484.88
2022-11-24T20:51:23.152Z,98495.28
2022-11-24T20:53:51.881Z,98472.69
2022-11-24T20:56:21.833Z,98490.94
2022-11-24T20:58:49.450Z,98486.69
2022-11-24T21:01:18.895Z,98483.75
2022-11-24T21:03:47.661Z,98492.22
2022-11-24T21:06:14.722Z,98503.13
2022-11-24T21:08:42.824Z,98488.78
2022-11-24T21:11:12.218Z,98488.84
2022-11-24T21:13:40.584Z,98491.44
2022-11-24T21:16:14.639Z,98488.41
2022-11-24T21:18:41.995Z,98469.19
2022-11-24T21:21:09.364Z,98479.81
2022-11-24T21:23:36.097Z,98465.69
2022-11-24T21:26:05.689Z,98477.00
2022-11-24T21:28:33.492Z,98449.19
2022-11-24T21:31:15.039Z,98467.81
2022-11-24T21:33:46.535Z,98460.75
2022-11-24T21:36:15.850Z,98464.84
2022-11-24T21:38:42.889Z,98471.00
2022-11-24T21:41:11.355Z,98471.97
2022-11-24T21:43:38.772Z,98474.88
2022-11-24T21:46:08.199Z,98472.81
2022-11-24T21:48:36.302Z,98473.13
2022-11-24T21:51:05.726Z,98448.09
2022-11-24T21:53:35.009Z,98481.59
2022-11-24T21:56:09.778Z,98505.97
2022-11-24T21:58:36.702Z,98474.66
2022-11-24T22:01:10.935Z,98497.94
2022-11-24T22:03:38.349Z,98489.81
2022-11-24T22:06:05.681Z,98447.94
2022-11-24T22:08:32.398Z,98471.31
2022-11-24T22:11:07.361Z,98496.81
2022-11-24T22:13:34.665Z,98501.81
2022-11-24T22:16:07.742Z,98512.69
2022-11-24T22:18:36.697Z,98491.47
2022-11-24T22:21:04.908Z,98522.72
2022-11-24T22:23:32.972Z,98526.88
2022-11-24T22:26:03.965Z,98533.97
2022-11-24T22:28:35.446Z,98510.06
2022-11-24T22:31:11.500Z,98509.22
2022-11-24T22:33:38.420Z,98499.00
2022-11-24T22:36:06.080Z,98483.84
2022-11-24T22:38:33.661Z,98483.84
2022-11-24T22:41:11.420Z,98491.38
2022-11-24T22:43:39.391Z,98492.84
2022-11-24T22:46:11.173Z,98491.06
2022-11-24T22:48:38.931Z,98487.19
2022-11-24T22:51:08.044Z,98533.25
2022-11-24T22:53:34.993Z,98522.50
2022-11-24T22:56:03.008Z,98543.59
2022-11-24T22:58:31.144Z,98535.22
2022-11-24T23:01:03.370Z,98552.78
2022-11-24T23:03:30.128Z,98540.63
2022-11-24T23:06:00.792Z,98550.69
2022-11-24T23:08:27.581Z,98550.19
2022-11-24T23:11:08.504Z,98547.66
2022-11-24T23:13:35.769Z,98546.72
2022-11-24T23:16:04.952Z,98525.19
2022-11-24T23:18:31.725Z,98520.63
2022-11-24T23:21:05.143Z,98514.28
2022-11-24T23:23:32.324Z,98508.88
2022-11-24T23:26:03.623Z,98494.75
2022-11-24T23:28:30.323Z,98478.25
2022-11-24T23:31:05.323Z,98521.09
2022-11-24T23:33:32.268Z,98528.28
2022-11-24T23:36:05.212Z,98535.22
2022-11-24T23:38:35.203Z,98560.25
2022-11-24T23:41:04.626Z,98553.75
2022-11-24T23:43:32.533Z,98563.56
2022-11-24T23:46:10.777Z,98556.63
2022-11-24T23:48:38.013Z,98576.88
2022-11-24T23:51:08.809Z,98551.09
2022-11-24T23:53:36.636Z,98567.53
2022-11-24T23:56:04.104Z,98572.41
2022-11-24T23:58:31.831Z,98580.25
